Time;durP1;ratioP1;P1;durP2;ratioP2;P2;SDS_P1;SDS_P2;PMS_P1;PMS_P2;Temp;Humidity;BMP_temperature;BMP_pressure;BME280_temperature;BME280_humidity;BME280_pressure;Samples;Min_cycle;Max_cycle;Signal;HPM_P1;HPM_P2
2023/06/24 00:01:14;;;;;;;26.00;12.93;;;;;;;21.86;100.00;97413.72;5038801;28;20032;-84
2023/06/24 00:03:39;;;;;;;23.50;14.77;;;;;;;21.82;100.00;97401.44;5039283;28;20385;-83
2023/06/24 00:06:05;;;;;;;21.30;14.07;;;;;;;21.81;100.00;97410.63;5055867;28;20476;-85
2023/06/24 00:08:36;;;;;;;27.33;13.73;;;;;;;21.79;100.00;97399.06;5073483;28;20024;-84
2023/06/24 00:11:03;;;;;;;26.52;13.65;;;;;;;21.76;100.00;97404.84;5055259;28;20025;-85
2023/06/24 00:13:28;;;;;;;22.73;14.30;;;;;;;21.74;100.00;97387.84;5038678;28;20035;-83
2023/06/24 00:15:54;;;;;;;25.33;14.73;;;;;;;21.76;100.00;97401.25;5054340;28;20024;-83
2023/06/24 00:18:24;;;;;;;23.05;14.35;;;;;;;21.74;100.00;97389.69;5055143;28;20025;-83
2023/06/24 00:20:50;;;;;;;25.48;13.88;;;;;;;21.69;100.00;97395.63;5055156;28;20082;-83
2023/06/24 00:23:17;;;;;;;25.00;14.13;;;;;;;21.74;100.00;97406.91;5038649;28;20029;-84
2023/06/24 00:25:42;;;;;;;27.42;14.02;;;;;;;21.70;100.00;97408.25;5054553;28;20450;-85
2023/06/24 00:28:08;;;;;;;26.10;14.35;;;;;;;21.72;100.00;97406.19;5038345;28;20028;-85
2023/06/24 00:30:34;;;;;;;23.45;14.13;;;;;;;21.72;100.00;97413.53;5054864;28;20479;-85
2023/06/24 00:32:59;;;;;;;22.52;14.07;;;;;;;21.67;100.00;97413.16;5054430;28;20032;-85
2023/06/24 00:35:25;;;;;;;24.38;13.88;;;;;;;21.64;100.00;97411.63;5053964;28;20029;-85
2023/06/24 00:37:50;;;;;;;21.90;14.00;;;;;;;21.49;100.00;97407.84;5054395;28;20031;-85
2023/06/24 00:40:16;;;;;;;20.50;13.55;;;;;;;21.44;100.00;97418.41;5038046;28;20027;-85
2023/06/24 00:42:44;;;;;;;23.75;14.73;;;;;;;21.40;100.00;97417.03;5054577;28;20020;-84
2023/06/24 00:45:10;;;;;;;30.38;13.63;;;;;;;21.34;100.00;97402.22;5048099;28;20024;-84
2023/06/24 00:47:36;;;;;;;21.08;13.68;;;;;;;21.34;100.00;97414.97;5012064;28;20053;-85
2023/06/24 00:50:02;;;;;;;22.15;14.38;;;;;;;21.33;100.00;97402.34;5032319;28;20124;-84
2023/06/24 00:52:28;;;;;;;20.55;14.18;;;;;;;21.25;100.00;97394.19;5040496;28;20413;-84
2023/06/24 00:54:53;;;;;;;21.98;14.57;;;;;;;21.31;100.00;97402.53;5032416;28;20033;-84
2023/06/24 00:57:24;;;;;;;23.33;14.77;;;;;;;21.27;100.00;97403.03;5034231;28;20048;-84
2023/06/24 00:59:53;;;;;;;23.00;14.82;;;;;;;21.22;100.00;97400.81;5031100;28;20473;-84
2023/06/24 01:02:20;;;;;;;23.13;14.98;;;;;;;21.20;100.00;97407.41;5049964;28;20020;-85
2023/06/24 01:04:47;;;;;;;24.20;15.32;;;;;;;21.15;100.00;97407.06;5010537;28;20032;-85
2023/06/24 01:07:12;;;;;;;28.92;15.27;;;;;;;21.02;100.00;97400.19;5033454;28;20020;-85
2023/06/24 01:09:38;;;;;;;22.38;14.52;;;;;;;21.04;100.00;97406.28;5018054;28;20507;-84
2023/06/24 01:12:04;;;;;;;24.52;14.80;;;;;;;21.04;100.00;97405.47;5026760;28;20040;-85
2023/06/24 01:14:30;;;;;;;23.73;14.73;;;;;;;21.09;100.00;97403.13;5034514;28;20021;-85
2023/06/24 01:17:08;;;;;;;22.20;14.40;;;;;;;21.04;100.00;97409.00;5025015;28;20039;-85
2023/06/24 01:19:43;;;;;;;27.83;15.30;;;;;;;21.01;100.00;97413.97;5026869;28;20025;-85
2023/06/24 01:22:21;;;;;;;30.55;15.40;;;;;;;20.98;100.00;97417.81;5025301;28;20120;-84
2023/06/24 01:25:19;;;;;;;26.67;15.57;;;;;;;21.02;100.00;97411.06;5011975;28;20048;-84
2023/06/24 01:28:24;;;;;;;25.38;15.23;;;;;;;20.92;100.00;97406.75;5024012;28;20029;-84
2023/06/24 01:31:30;;;;;;;30.58;15.40;;;;;;;20.94;100.00;97411.03;5045153;28;20031;-84
2023/06/24 01:34:11;;;;;;;31.33;15.25;;;;;;;20.94;100.00;97399.28;4974750;28;20109;-84
2023/06/24 01:36:38;;;;;;;22.73;15.10;;;;;;;20.85;100.00;97401.13;5009088;28;20035;-83
2023/06/24 01:39:07;;;;;;;23.15;15.40;;;;;;;20.81;100.00;97390.72;5031120;28;20520;-87
2023/06/24 01:41:39;;;;;;;24.23;14.95;;;;;;;20.74;100.00;97386.94;5017682;28;20036;-86
2023/06/24 01:44:05;;;;;;;29.48;14.80;;;;;;;20.74;100.00;97387.78;5033267;28;20025;-85
2023/06/24 01:46:30;;;;;;;24.48;13.77;;;;;;;20.71;100.00;97393.56;5033394;28;20036;-85
2023/06/24 01:48:59;;;;;;;23.50;14.15;;;;;;;20.66;100.00;97384.19;5034506;28;20052;-85
2023/06/24 01:51:25;;;;;;;23.52;14.70;;;;;;;20.63;100.00;97390.81;5027630;28;20480;-85
2023/06/24 01:53:54;;;;;;;30.15;16.08;;;;;;;20.54;100.00;97386.34;5053628;28;20035;-84
2023/06/24 01:56:20;;;;;;;19.88;13.88;;;;;;;20.50;100.00;97390.38;5044334;28;20074;-84
2023/06/24 01:58:47;;;;;;;27.40;15.40;;;;;;;20.53;100.00;97395.50;5029821;28;20032;-85
2023/06/24 02:01:13;;;;;;;26.17;14.57;;;;;;;20.55;100.00;97388.03;5020191;28;20082;-85
2023/06/24 02:03:39;;;;;;;22.00;14.95;;;;;;;20.56;100.00;97387.00;5033569;28;20029;-85
2023/06/24 02:06:06;;;;;;;28.35;14.23;;;;;;;20.58;100.00;97393.13;5017053;28;20455;-85
2023/06/24 02:08:34;;;;;;;34.55;15.05;;;;;;;20.60;100.00;97402.00;5052783;28;20107;-85
2023/06/24 02:11:01;;;;;;;23.90;14.70;;;;;;;20.64;100.00;97386.22;5033926;28;20051;-85
2023/06/24 02:13:31;;;;;;;31.00;14.40;;;;;;;20.60;100.00;97382.97;5027398;28;20415;-84
2023/06/24 02:15:57;;;;;;;26.77;14.95;;;;;;;20.55;100.00;97382.59;5034106;28;20025;-86
2023/06/24 02:18:23;;;;;;;25.83;14.68;;;;;;;20.53;100.00;97384.63;5042275;28;20032;-82
2023/06/24 02:20:49;;;;;;;28.73;15.50;;;;;;;20.46;100.00;97397.13;5052954;28;20036;-82
2023/06/24 02:23:15;;;;;;;29.42;14.95;;;;;;;20.46;100.00;97403.44;5036351;28;20021;-82
2023/06/24 02:25:42;;;;;;;26.83;13.90;;;;;;;20.45;100.00;97399.03;5052741;28;20016;-80
2023/06/24 02:28:08;;;;;;;21.17;13.55;;;;;;;20.46;100.00;97399.84;5033281;28;20044;-81
2023/06/24 02:30:38;;;;;;;23.50;13.95;;;;;;;20.45;100.00;97403.59;5047226;28;20025;-81
2023/06/24 02:33:03;;;;;;;20.35;13.07;;;;;;;20.33;100.00;97403.00;5033331;28;20020;-80
2023/06/24 02:35:29;;;;;;;20.35;13.57;;;;;;;20.27;100.00;97410.94;5035985;28;20020;-82
2023/06/24 02:37:54;;;;;;;22.35;13.70;;;;;;;20.34;100.00;97423.72;5057560;28;20024;-82
2023/06/24 02:40:20;;;;;;;25.25;13.82;;;;;;;20.37;100.00;97422.56;5032995;28;20025;-81
2023/06/24 02:42:45;;;;;;;25.35;13.88;;;;;;;20.38;100.00;97437.84;5049400;28;20070;-80
2023/06/24 02:45:11;;;;;;;21.80;14.05;;;;;;;20.41;100.00;97435.69;5055353;28;20497;-81
2023/06/24 02:47:37;;;;;;;21.77;14.90;;;;;;;20.41;100.00;97445.69;5029391;28;20083;-81
2023/06/24 02:50:07;;;;;;;27.40;14.98;;;;;;;20.34;100.00;97444.59;5016000;28;20036;-81
2023/06/24 02:52:36;;;;;;;35.85;17.20;;;;;;;20.35;100.00;97443.59;5032535;28;20074;-81
2023/06/24 02:55:02;;;;;;;24.58;14.88;;;;;;;20.39;100.00;97459.44;5032817;28;20025;-81
2023/06/24 02:57:28;;;;;;;24.40;14.10;;;;;;;20.31;100.00;97459.38;5032697;28;20021;-82
2023/06/24 02:59:54;;;;;;;19.33;13.60;;;;;;;20.29;100.00;97463.25;5018627;28;20029;-82
2023/06/24 03:02:19;;;;;;;24.85;13.80;;;;;;;20.23;100.00;97463.84;5020028;28;20570;-82
2023/06/24 03:04:45;;;;;;;27.88;13.77;;;;;;;20.22;100.00;97473.84;5036258;28;20109;-81
2023/06/24 03:07:11;;;;;;;23.52;14.18;;;;;;;20.18;100.00;97477.06;5036086;28;20111;-81
2023/06/24 03:09:36;;;;;;;28.40;15.70;;;;;;;20.20;100.00;97481.31;5054025;28;20036;-85
2023/06/24 03:12:02;;;;;;;29.58;14.75;;;;;;;20.17;100.00;97484.34;5035916;28;20021;-85
2023/06/24 03:14:28;;;;;;;34.25;16.65;;;;;;;20.15;100.00;97496.38;5036266;28;20025;-85
2023/06/24 03:16:53;;;;;;;49.20;17.42;;;;;;;20.14;100.00;97497.38;5036027;28;20027;-84
2023/06/24 03:19:19;;;;;;;29.67;14.82;;;;;;;20.18;100.00;97501.50;5019801;28;20424;-85
2023/06/24 03:21:44;;;;;;;30.65;14.63;;;;;;;20.25;100.00;97500.72;5036759;28;20021;-81
2023/06/24 03:24:10;;;;;;;28.67;15.35;;;;;;;20.30;100.00;97508.44;5019218;28;20033;-81
2023/06/24 03:26:40;;;;;;;21.92;14.25;;;;;;;20.33;100.00;97508.13;5035824;28;20025;-83
2023/06/24 03:29:07;;;;;;;27.15;13.88;;;;;;;20.32;100.00;97506.41;5035668;28;20039;-83
2023/06/24 03:31:32;;;;;;;29.33;13.90;;;;;;;20.22;100.00;97517.31;5036187;28;20071;-83
2023/06/24 03:33:58;;;;;;;28.52;14.57;;;;;;;20.17;100.00;97516.09;5035811;28;20574;-81
2023/06/24 03:36:24;;;;;;;25.13;14.63;;;;;;;20.17;100.00;97524.25;5035616;28;20032;-81
2023/06/24 03:38:50;;;;;;;30.05;18.00;;;;;;;20.18;100.00;97520.53;5035706;28;20108;-82
2023/06/24 03:41:15;;;;;;;26.10;15.63;;;;;;;20.11;100.00;97514.84;5035453;28;20039;-83
2023/06/24 03:43:41;;;;;;;36.65;15.07;;;;;;;20.24;100.00;97517.19;5053240;28;20021;-81
2023/06/24 03:46:07;;;;;;;39.80;20.27;;;;;;;20.34;100.00;97515.25;5035460;28;20028;-86
2023/06/24 03:48:33;;;;;;;33.70;16.83;;;;;;;20.59;100.00;97519.03;5031723;28;20135;-87
2023/06/24 03:50:59;;;;;;;22.27;14.00;;;;;;;20.79;100.00;97509.69;5038686;28;20021;-86
2023/06/24 03:53:24;;;;;;;33.95;15.38;;;;;;;20.92;100.00;97504.66;5039037;28;20029;-85
2023/06/24 03:55:53;;;;;;;24.85;15.23;;;;;;;21.11;100.00;97504.47;5038637;28;20028;-84
2023/06/24 03:58:20;;;;;;;28.25;14.13;;;;;;;21.22;100.00;97511.50;5039105;28;20114;-85
2023/06/24 04:00:49;;;;;;;24.63;15.88;;;;;;;21.21;100.00;97499.75;5039077;28;20121;-86
2023/06/24 04:03:14;;;;;;;39.60;16.83;;;;;;;21.41;100.00;97508.56;5055595;28;20170;-86
2023/06/24 04:05:40;;;;;;;28.92;14.68;;;;;;;21.57;100.00;97503.16;5038818;28;20474;-85
2023/06/24 04:08:06;;;;;;;27.88;14.07;;;;;;;21.57;100.00;97486.81;5039159;28;20039;-86
2023/06/24 04:10:33;;;;;;;19.60;13.50;;;;;;;21.65;100.00;97486.00;5037920;28;20033;-86
2023/06/24 04:12:58;;;;;;;26.25;14.23;;;;;;;21.71;100.00;97479.91;5054413;28;20032;-85
2023/06/24 04:15:24;;;;;;;18.65;12.32;;;;;;;21.73;100.00;97478.72;5072676;28;20524;-86
2023/06/24 04:17:49;;;;;;;19.42;12.48;;;;;;;21.70;100.00;97487.22;5039324;28;20017;-87
2023/06/24 04:20:15;;;;;;;24.55;13.18;;;;;;;21.70;100.00;97479.03;5051250;28;20016;-86
2023/06/24 04:22:41;;;;;;;22.92;13.02;;;;;;;21.76;100.00;97491.13;5038314;28;20480;-85
2023/06/24 04:25:07;;;;;;;26.65;13.27;;;;;;;21.83;100.00;97484.88;5055363;28;20028;-89
2023/06/24 04:27:34;;;;;;;20.17;12.30;;;;;;;21.94;100.00;97484.56;5051358;28;20538;-89
2023/06/24 04:30:03;;;;;;;17.92;12.73;;;;;;;22.03;100.00;97479.97;5038205;28;20154;-89
2023/06/24 04:32:29;;;;;;;21.80;12.77;;;;;;;22.25;100.00;97482.06;5037736;28;20036;-85
2023/06/24 04:34:54;;;;;;;20.98;12.45;;;;;;;22.34;100.00;97485.63;5054089;28;20047;-85
2023/06/24 04:37:20;;;;;;;17.55;12.32;;;;;;;22.49;100.00;97484.78;5054414;28;20024;-85
2023/06/24 04:39:46;;;;;;;18.73;12.20;;;;;;;22.59;100.00;97481.91;5037823;28;20542;-86
2023/06/24 04:42:11;;;;;;;27.17;13.30;;;;;;;22.66;100.00;97478.34;5037627;28;20024;-85
2023/06/24 04:44:37;;;;;;;25.50;12.85;;;;;;;22.79;100.00;97469.66;5037623;28;20108;-86
2023/06/24 04:47:03;;;;;;;18.63;12.50;;;;;;;22.99;100.00;97479.16;5035843;28;20032;-86
2023/06/24 04:49:28;;;;;;;19.63;12.55;;;;;;;23.12;100.00;97479.47;5051902;28;20040;-86
2023/06/24 04:51:54;;;;;;;19.73;12.60;;;;;;;23.55;100.00;97488.22;5037698;28;20115;-86
2023/06/24 04:54:19;;;;;;;19.95;13.45;;;;;;;24.51;100.00;97488.66;5054403;28;20036;-86
2023/06/24 04:56:45;;;;;;;22.80;12.55;;;;;;;25.03;100.00;97484.13;5037110;28;20600;-87
2023/06/24 04:59:11;;;;;;;36.17;13.73;;;;;;;25.67;100.00;97493.50;5054052;28;20083;-86
2023/06/24 05:01:37;;;;;;;22.70;13.23;;;;;;;26.32;100.00;97481.66;5054384;28;20029;-87
2023/06/24 05:04:02;;;;;;;29.52;13.90;;;;;;;27.44;100.00;97473.31;5054665;28;20016;-86
2023/06/24 05:06:28;;;;;;;24.27;14.05;;;;;;;27.39;100.00;97470.31;5037616;28;20048;-86
2023/06/24 05:08:54;;;;;;;23.30;13.85;;;;;;;27.19;100.00;97466.59;5054111;28;20028;-87
2023/06/24 05:11:19;;;;;;;26.92;16.05;;;;;;;27.26;100.00;97464.72;5054085;28;20039;-87
2023/06/24 05:13:44;;;;;;;23.42;14.50;;;;;;;28.20;100.00;97468.63;5053403;28;20081;-87
2023/06/24 05:16:10;;;;;;;25.50;13.85;;;;;;;28.92;100.00;97460.47;5037127;28;20090;-85
2023/06/24 05:18:35;;;;;;;25.17;13.95;;;;;;;28.99;100.00;97454.94;5071997;28;20032;-84
2023/06/24 05:21:01;;;;;;;23.50;14.50;;;;;;;29.61;100.00;97456.34;5053585;28;20118;-85
2023/06/24 05:23:27;;;;;;;34.55;13.18;;;;;;;29.81;100.00;97441.41;5036832;28;20518;-85
2023/06/24 05:25:52;;;;;;;24.50;12.88;;;;;;;30.07;100.00;97457.03;5053659;28;20500;-84
2023/06/24 05:28:18;;;;;;;23.20;12.73;;;;;;;30.52;100.00;97455.94;5053520;28;20107;-83
2023/06/24 05:30:45;;;;;;;19.92;12.30;;;;;;;31.17;100.00;97449.06;5053512;28;20403;-80
2023/06/24 05:33:10;;;;;;;28.90;13.10;;;;;;;31.25;100.00;97447.94;5036455;28;20025;-82
2023/06/24 05:35:39;;;;;;;30.73;13.18;;;;;;;31.41;100.00;97449.28;5071857;28;20024;-82
2023/06/24 05:38:05;;;;;;;22.83;12.25;;;;;;;31.34;100.00;97443.81;5036899;28;20036;-82
2023/06/24 05:40:31;;;;;;;76.72;50.55;;;;;;;30.84;100.00;97451.25;5033694;28;20024;-82
2023/06/24 05:42:56;;;;;;;18.63;12.32;;;;;;;30.92;100.00;97452.88;5045639;28;20036;-82
2023/06/24 05:45:22;;;;;;;28.35;14.73;;;;;;;30.41;100.00;97453.91;5052618;28;20024;-82
2023/06/24 05:47:47;;;;;;;22.85;11.77;;;;;;;30.97;100.00;97442.88;5036112;28;20044;-80
2023/06/24 05:50:13;;;;;;;25.10;12.02;;;;;;;31.49;100.00;97444.31;5071037;28;20028;-83
2023/06/24 05:52:38;;;;;;;20.17;12.43;;;;;;;31.95;93.56;97434.59;5036487;28;20058;-83
2023/06/24 05:55:04;;;;;;;31.80;15.15;;;;;;;31.52;99.08;97445.78;5053002;28;20024;-84
2023/06/24 05:57:30;;;;;;;26.33;14.32;;;;;;;32.47;94.08;97444.97;5053048;28;20024;-84
2023/06/24 05:59:55;;;;;;;17.50;12.02;;;;;;;32.67;88.52;97433.63;5052774;28;20028;-84
2023/06/24 06:02:21;;;;;;;28.67;14.07;;;;;;;32.94;88.42;97439.56;5052991;28;20024;-85
2023/06/24 06:04:47;;;;;;;21.02;10.98;;;;;;;33.81;82.47;97430.28;5053196;28;20035;-86
2023/06/24 06:07:12;;;;;;;17.02;11.05;;;;;;;34.02;78.80;97429.66;5052883;28;20030;-86
2023/06/24 06:09:38;;;;;;;21.27;11.73;;;;;;;34.27;79.97;97434.91;5047578;28;20536;-85
2023/06/24 06:12:04;;;;;;;13.32;9.70;;;;;;;34.15;75.87;97434.09;5068372;28;20051;-85
2023/06/24 06:14:29;;;;;;;17.98;11.23;;;;;;;34.31;74.69;97438.84;5034700;28;20029;-86
2023/06/24 06:16:55;;;;;;;30.25;21.17;;;;;;;34.62;70.27;97429.19;5036425;28;20389;-85
2023/06/24 06:19:20;;;;;;;13.82;9.95;;;;;;;34.51;66.79;97419.81;5070877;28;20147;-85
2023/06/24 06:21:46;;;;;;;51.88;34.47;;;;;;;34.81;63.11;97417.59;5035769;28;20484;-84
2023/06/24 06:24:11;;;;;;;15.15;9.98;;;;;;;35.57;59.48;97415.19;5036134;28;20025;-84
2023/06/24 06:26:42;;;;;;;22.08;13.82;;;;;;;35.61;57.78;97414.47;5036346;28;20028;-84
2023/06/24 06:29:07;;;;;;;20.13;10.30;;;;;;;35.86;60.55;97425.94;5036060;28;20043;-84
2023/06/24 06:31:33;;;;;;;15.48;10.07;;;;;;;35.41;62.45;97418.88;5053022;28;20029;-83
2023/06/24 06:33:58;;;;;;;19.67;11.38;;;;;;;35.54;61.95;97412.91;5037060;28;20525;-85
2023/06/24 06:36:24;;;;;;;44.22;29.13;;;;;;;34.47;71.75;97418.63;5056977;28;20035;-86
2023/06/24 06:38:49;;;;;;;17.98;10.45;;;;;;;34.90;68.72;97423.59;5058537;28;20400;-83
2023/06/24 06:41:15;;;;;;;17.73;11.43;;;;;;;34.86;68.98;97416.81;5038287;28;20044;-81
2023/06/24 06:43:41;;;;;;;24.52;15.35;;;;;;;34.72;66.77;97421.03;5033764;28;20024;-82
2023/06/24 06:46:06;;;;;;;21.13;14.40;;;;;;;34.90;67.57;97426.38;5056696;28;20111;-83
2023/06/24 06:48:32;;;;;;;18.13;11.57;;;;;;;35.07;66.47;97418.03;5039579;28;20072;-82
2023/06/24 06:50:58;;;;;;;21.38;11.38;;;;;;;35.67;63.66;97432.91;5056351;28;20028;-82
2023/06/24 06:53:23;;;;;;;20.05;10.13;;;;;;;36.63;60.23;97431.34;5056393;28;20028;-82
2023/06/24 06:55:49;;;;;;;21.27;12.65;;;;;;;37.10;56.18;97409.19;5039744;28;20036;-82
2023/06/24 06:58:15;;;;;;;14.23;11.50;;;;;;;35.85;58.14;97409.47;5039456;28;20044;-82
2023/06/24 07:00:40;;;;;;;14.52;10.32;;;;;;;36.25;57.53;97418.38;5035112;28;20112;-82
2023/06/24 07:03:11;;;;;;;23.73;10.68;;;;;;;37.13;53.87;97405.06;5036070;28;20036;-83
2023/06/24 07:05:37;;;;;;;17.95;10.73;;;;;;;38.30;49.67;97410.22;5035942;28;20033;-82
2023/06/24 07:08:05;;;;;;;19.55;11.40;;;;;;;38.58;48.05;97401.34;5035180;28;20078;-82
2023/06/24 07:10:30;;;;;;;15.48;11.07;;;;;;;37.57;49.38;97408.44;5039187;28;20475;-81
2023/06/24 07:12:57;;;;;;;17.30;11.05;;;;;;;38.12;48.73;97402.31;5039335;28;20033;-81
2023/06/24 07:15:25;;;;;;;13.82;10.10;;;;;;;37.56;50.39;97410.41;5039783;28;20038;-82
2023/06/24 07:17:50;;;;;;;12.98;9.98;;;;;;;38.41;46.14;97400.75;5039026;28;20052;-81
2023/06/24 07:20:16;;;;;;;12.40;9.75;;;;;;;38.71;45.64;97406.41;5055968;28;20492;-82
2023/06/24 07:22:41;;;;;;;19.23;10.93;;;;;;;38.57;44.60;97410.88;5055655;28;20035;-81
2023/06/24 07:25:07;;;;;;;16.75;11.07;;;;;;;37.99;46.01;97398.09;5038855;28;20036;-82
2023/06/24 07:27:32;;;;;;;18.40;10.95;;;;;;;37.81;47.82;97406.91;5038550;28;20167;-80
2023/06/24 07:29:58;;;;;;;22.33;11.25;;;;;;;37.93;46.96;97408.38;5055702;28;20028;-82
2023/06/24 07:32:23;;;;;;;16.17;10.88;;;;;;;37.99;45.77;97386.91;5039001;28;20085;-82
2023/06/24 07:34:49;;;;;;;19.08;10.18;;;;;;;38.83;45.88;97408.94;5038413;28;20029;-82
2023/06/24 07:37:14;;;;;;;17.17;10.73;;;;;;;38.79;42.68;97377.06;5038672;28;20021;-82
2023/06/24 07:39:40;;;;;;;27.38;12.70;;;;;;;38.81;43.33;97409.25;5038621;28;20039;-82
2023/06/24 07:42:05;;;;;;;10.77;8.68;;;;;;;39.46;40.87;97401.97;5038679;28;20029;-83
2023/06/24 07:44:31;;;;;;;14.38;9.23;;;;;;;39.87;40.19;97395.13;5030089;28;20541;-83
2023/06/24 07:46:58;;;;;;;9.52;8.52;;;;;;;39.89;39.51;97387.31;5054076;28;20060;-83
2023/06/24 07:49:23;;;;;;;13.85;11.18;;;;;;;40.51;38.24;97391.50;5038243;28;20554;-83
2023/06/24 07:51:49;;;;;;;12.18;9.23;;;;;;;40.41;39.65;97399.97;5038152;28;20064;-82
2023/06/24 07:54:15;;;;;;;10.63;8.55;;;;;;;40.44;37.70;97389.00;5038528;28;20025;-82
2023/06/24 07:56:40;;;;;;;20.35;9.43;;;;;;;41.39;36.01;97394.22;5038360;28;20484;-83
2023/06/24 07:59:06;;;;;;;11.60;8.95;;;;;;;42.13;35.77;97391.72;5055149;28;20028;-83
2023/06/24 08:01:32;;;;;;;17.55;9.02;;;;;;;42.83;34.76;97383.44;5038802;28;20043;-82
2023/06/24 08:03:57;;;;;;;14.48;11.18;;;;;;;43.08;34.08;97366.16;5036636;28;20455;-83
2023/06/24 08:06:23;;;;;;;11.88;9.82;;;;;;;42.82;34.62;97375.31;5038300;28;20021;-82
2023/06/24 08:08:48;;;;;;;11.48;8.95;;;;;;;41.80;35.93;97380.59;5038080;28;20037;-84
2023/06/24 08:11:14;;;;;;;21.92;15.13;;;;;;;42.57;34.80;97384.94;5038334;28;20466;-84
2023/06/24 08:13:39;;;;;;;17.30;12.52;;;;;;;41.68;35.56;97375.38;5038130;28;20025;-83
2023/06/24 08:16:05;;;;;;;30.45;23.42;;;;;;;42.95;34.99;97380.97;5054639;28;20032;-83
2023/06/24 08:18:31;;;;;;;11.80;9.52;;;;;;;43.73;32.95;97361.28;5037924;28;20028;-83
2023/06/24 08:20:57;;;;;;;20.00;9.55;;;;;;;44.28;32.36;97368.94;5037924;28;20475;-83
2023/06/24 08:23:22;;;;;;;15.50;9.90;;;;;;;44.70;32.30;97377.03;5037698;28;20020;-83
2023/06/24 08:25:48;;;;;;;17.50;13.48;;;;;;;44.09;33.32;97389.63;5054563;28;20083;-83
2023/06/24 08:28:13;;;;;;;14.60;9.07;;;;;;;43.14;33.57;97373.38;5037431;28;20086;-84
2023/06/24 08:30:39;;;;;;;16.30;10.32;;;;;;;43.09;34.85;97386.69;5037843;28;20086;-83
2023/06/24 08:33:04;;;;;;;12.85;10.88;;;;;;;43.29;34.90;97389.16;5037509;28;20033;-83
2023/06/24 08:35:30;;;;;;;16.45;12.30;;;;;;;40.52;38.30;97381.97;5037906;28;20553;-83
2023/06/24 08:37:55;;;;;;;14.68;10.30;;;;;;;41.71;37.54;97388.00;5054154;28;20450;-83
2023/06/24 08:40:21;;;;;;;15.35;10.50;;;;;;;42.63;36.20;97381.78;5037642;28;20089;-84
2023/06/24 08:42:46;;;;;;;14.95;10.27;;;;;;;42.38;35.02;97370.03;5054137;28;20024;-84
2023/06/24 08:45:12;;;;;;;16.38;8.98;;;;;;;42.80;33.80;97355.03;5053985;28;20538;-83
2023/06/24 08:47:37;;;;;;;15.30;10.00;;;;;;;44.11;33.17;97369.56;5053846;28;20037;-84
2023/06/24 08:50:15;;;;;;;18.33;11.05;;;;;;;44.35;31.93;97358.88;5037204;28;20024;-83
2023/06/24 08:52:51;;;;;;;23.92;10.93;;;;;;;44.67;31.81;97366.38;5033807;28;20044;-83
2023/06/24 08:55:17;;;;;;;14.63;8.88;;;;;;;44.30;31.05;97356.19;5036830;28;20020;-83
2023/06/24 08:57:43;;;;;;;13.63;8.48;;;;;;;44.65;30.68;97351.72;5036793;28;20078;-83
2023/06/24 09:00:10;;;;;;;11.75;8.82;;;;;;;43.58;32.11;97338.19;5036938;28;20028;-82
2023/06/24 09:02:37;;;;;;;12.82;9.32;;;;;;;43.44;32.50;97355.09;5054025;28;20013;-83
2023/06/24 09:05:05;;;;;;;11.77;8.15;;;;;;;43.76;32.67;97351.41;5036927;28;20027;-83
2023/06/24 09:07:30;;;;;;;13.77;7.75;;;;;;;43.74;31.79;97342.38;5037060;28;20028;-82
2023/06/24 09:09:56;;;;;;;11.15;8.70;;;;;;;43.93;31.52;97340.34;5053630;28;20201;-83
2023/06/24 09:12:24;;;;;;;16.13;10.68;;;;;;;43.63;33.40;97347.38;5037238;28;20024;-84
2023/06/24 09:14:50;;;;;;;9.25;8.00;;;;;;;43.93;31.51;97340.34;5036937;28;20020;-84
2023/06/24 09:17:17;;;;;;;12.15;7.75;;;;;;;45.37;30.58;97338.34;5036689;28;20155;-83
2023/06/24 09:19:42;;;;;;;17.65;11.55;;;;;;;44.82;32.13;97346.22;5036973;28;20024;-83
2023/06/24 09:22:17;;;;;;;23.42;16.90;;;;;;;44.33;32.34;97347.09;5036745;28;20028;-83
2023/06/24 09:24:46;;;;;;;14.20;9.82;;;;;;;43.90;33.21;97328.84;5037788;28;20028;-83
2023/06/24 09:27:13;;;;;;;17.92;10.20;;;;;;;44.58;31.97;97335.22;5036789;28;20029;-84
2023/06/24 09:29:39;;;;;;;13.48;8.60;;;;;;;44.28;32.05;97338.72;5036847;28;20449;-83
2023/06/24 09:32:05;;;;;;;12.80;8.23;;;;;;;43.65;32.56;97333.00;5036398;28;20171;-82
2023/06/24 09:34:31;;;;;;;13.40;8.25;;;;;;;44.14;32.02;97329.44;5053367;28;20354;-82
2023/06/24 09:36:58;;;;;;;14.75;8.32;;;;;;;45.41;30.69;97336.50;5036427;28;20033;-82
2023/06/24 09:39:29;;;;;;;9.93;8.20;;;;;;;45.35;30.63;97337.00;5036444;28;20024;-83
2023/06/24 09:41:55;;;;;;;10.50;7.55;;;;;;;43.43;32.53;97342.16;5037244;28;20499;-82
2023/06/24 09:44:21;;;;;;;22.05;9.50;;;;;;;43.98;33.33;97347.84;5053133;28;20025;-82
2023/06/24 09:46:47;;;;;;;10.45;8.10;;;;;;;43.32;33.19;97353.91;5036661;28;20047;-83
2023/06/24 09:49:12;;;;;;;11.65;8.00;;;;;;;43.58;32.03;97344.69;5036088;28;20525;-80
2023/06/24 09:51:40;;;;;;;9.13;7.55;;;;;;;43.61;32.87;97340.38;5053269;28;20036;-81
2023/06/24 09:54:09;;;;;;;9.55;8.00;;;;;;;43.96;32.74;97338.88;5036044;28;20028;-80
2023/06/24 09:56:41;;;;;;;12.98;11.18;;;;;;;43.76;32.92;97348.56;5036476;28;20558;-82
2023/06/24 09:59:07;;;;;;;9.25;8.25;;;;;;;43.18;34.38;97346.25;5053129;28;20414;-82
2023/06/24 10:01:38;;;;;;;12.07;8.50;;;;;;;41.52;36.39;97345.78;5053093;28;20024;-82
2023/06/24 10:04:06;;;;;;;13.90;9.25;;;;;;;40.78;37.44;97360.19;5036279;28;20412;-82
2023/06/24 10:06:32;;;;;;;9.57;8.27;;;;;;;41.25;36.77;97346.31;5027820;28;20028;-82
2023/06/24 10:08:59;;;;;;;12.10;8.50;;;;;;;42.63;35.33;97350.81;5035351;28;20111;-82
2023/06/24 10:12:03;;;;;;;10.63;8.63;;;;;;;43.88;33.46;97343.25;5027499;28;20029;-84
2023/06/24 10:14:28;;;;;;;16.40;7.97;;;;;;;44.76;32.65;97342.66;4953545;28;20031;-83
2023/06/24 10:17:02;;;;;;;13.23;7.20;;;;;;;44.84;31.67;97337.41;4954212;28;20503;-83
2023/06/24 10:19:27;;;;;;;16.75;8.35;;;;;;;43.34;33.44;97345.97;5005139;28;20037;-83
2023/06/24 10:21:54;;;;;;;17.95;7.85;;;;;;;41.44;36.68;97341.63;5044711;28;20027;-83
2023/06/24 10:24:37;;;;;;;10.48;8.02;;;;;;;39.28;40.16;97343.75;5035697;28;20034;-82
2023/06/24 10:27:07;;;;;;;16.45;9.30;;;;;;;37.92;42.40;97336.00;5070712;28;20154;-84
2023/06/24 10:29:34;;;;;;;11.82;8.75;;;;;;;37.70;45.39;97333.38;5070397;28;20036;-82
2023/06/24 10:32:09;;;;;;;9.93;8.55;;;;;;;36.73;47.84;97333.81;5035951;28;20036;-82
2023/06/24 10:34:38;;;;;;;18.75;8.90;;;;;;;37.12;47.91;97341.97;5035777;28;20024;-82
2023/06/24 10:37:18;;;;;;;13.05;8.75;;;;;;;37.95;45.52;97338.25;5052746;28;20036;-83
2023/06/24 10:39:55;;;;;;;12.77;7.47;;;;;;;40.08;39.04;97314.59;5036867;28;20523;-83
2023/06/24 10:42:23;;;;;;;12.95;7.47;;;;;;;42.47;35.74;97311.91;5052414;28;20285;-82
2023/06/24 10:44:50;;;;;;;11.20;7.78;;;;;;;43.07;34.37;97298.88;5052488;28;20036;-84
2023/06/24 10:47:16;;;;;;;10.65;7.43;;;;;;;44.12;33.37;97295.88;5052798;28;20025;-82
2023/06/24 10:49:42;;;;;;;12.43;6.70;;;;;;;44.34;32.01;97278.19;5036008;28;20032;-83
2023/06/24 10:52:11;;;;;;;12.95;7.47;;;;;;;45.41;30.53;97267.84;5036140;28;20404;-84
2023/06/24 10:54:37;;;;;;;14.90;8.02;;;;;;;46.13;29.70;97263.44;5035675;28;20090;-85
2023/06/24 10:57:07;;;;;;;8.35;6.93;;;;;;;46.41;29.42;97263.13;5035812;28;20028;-83
2023/06/24 10:59:43;;;;;;;12.20;7.83;;;;;;;46.36;30.11;97264.13;5035645;28;20032;-83
2023/06/24 11:02:09;;;;;;;10.32;7.03;;;;;;;47.29;29.28;97265.22;5035627;28;20063;-83
2023/06/24 11:04:48;;;;;;;7.25;6.55;;;;;;;46.98;28.45;97250.44;5035426;28;20476;-84
2023/06/24 11:07:14;;;;;;;9.27;6.78;;;;;;;46.17;29.34;97250.31;5035717;28;20024;-84
2023/06/24 11:09:48;;;;;;;13.63;6.90;;;;;;;45.63;29.86;97243.13;5052024;28;20033;-84
2023/06/24 11:12:14;;;;;;;25.08;7.50;;;;;;;46.27;29.38;97249.16;5035804;28;20440;-82
2023/06/24 11:14:40;;;;;;;8.27;7.40;;;;;;;45.22;29.52;97239.81;5035537;28;20114;-83